sensor_id;sensor_type;location;lat;lon;timestamp;pressure;altitude;pressure_sealevel;temperature;humidity
81897;BME280;71360;43.506;1.500;2023-11-21T00:00:44;99191.31;;;9.79;80.92
81897;BME280;71360;43.506;1.500;2023-11-21T00:03:11;99184.34;;;9.76;80.89
81897;BME280;71360;43.506;1.500;2023-11-21T00:05:40;99188.81;;;9.76;81.75
81897;BME280;71360;43.506;1.500;2023-11-21T00:08:07;99192.56;;;9.72;81.32
81897;BME280;71360;43.506;1.500;2023-11-21T00:10:32;99190.03;;;9.69;81.48
81897;BME280;71360;43.506;1.500;2023-11-21T00:12:58;99197.03;;;9.71;81.34
81897;BME280;71360;43.506;1.500;2023-11-21T00:15:23;99188.16;;;9.71;81.34
81897;BME280;71360;43.506;1.500;2023-11-21T00:17:49;99198.75;;;9.72;81.33
81897;BME280;71360;43.506;1.500;2023-11-21T00:20:14;99202.31;;;9.73;81.55
81897;BME280;71360;43.506;1.500;2023-11-21T00:22:40;99192.41;;;9.75;81.31
81897;BME280;71360;43.506;1.500;2023-11-21T00:25:06;99193.22;;;9.77;81.80
81897;BME280;71360;43.506;1.500;2023-11-21T00:27:34;99195.81;;;9.78;81.52
81897;BME280;71360;43.506;1.500;2023-11-21T00:30:00;99193.06;;;9.80;81.40
81897;BME280;71360;43.506;1.500;2023-11-21T00:32:26;99177.03;;;9.80;81.67
81897;BME280;71360;43.506;1.500;2023-11-21T00:34:51;99168.09;;;9.81;81.05
81897;BME280;71360;43.506;1.500;2023-11-21T00:37:17;99175.19;;;9.82;81.54
81897;BME280;71360;43.506;1.500;2023-11-21T00:39:42;99171.53;;;9.83;81.21
81897;BME280;71360;43.506;1.500;2023-11-21T00:42:07;99170.59;;;9.84;81.15
81897;BME280;71360;43.506;1.500;2023-11-21T00:44:33;99170.59;;;9.84;81.02
81897;BME280;71360;43.506;1.500;2023-11-21T00:46:59;99164.34;;;9.85;80.95
81897;BME280;71360;43.506;1.500;2023-11-21T00:49:25;99167.09;;;9.84;81.43
81897;BME280;71360;43.506;1.500;2023-11-21T00:51:50;99160.88;;;9.83;81.19
81897;BME280;71360;43.506;1.500;2023-11-21T00:54:16;99170.59;;;9.84;81.14
81897;BME280;71360;43.506;1.500;2023-11-21T00:56:42;99167.09;;;9.84;80.95
81897;BME280;71360;43.506;1.500;2023-11-21T00:59:08;99162.53;;;9.86;81.33
81897;BME280;71360;43.506;1.500;2023-11-21T01:01:33;99162.31;;;9.90;80.84
81897;BME280;71360;43.506;1.500;2023-11-21T01:03:59;99163.16;;;9.91;80.84
81897;BME280;71360;43.506;1.500;2023-11-21T01:06:25;99153.38;;;9.91;80.79
81897;BME280;71360;43.506;1.500;2023-11-21T01:08:50;99159.56;;;9.92;80.49
81897;BME280;71360;43.506;1.500;2023-11-21T01:11:16;99145.41;;;9.90;80.56
81897;BME280;71360;43.506;1.500;2023-11-21T01:13:41;99150.84;;;9.88;80.97
81897;BME280;71360;43.506;1.500;2023-11-21T01:16:07;99157.09;;;9.87;81.06
81897;BME280;71360;43.506;1.500;2023-11-21T01:18:35;99150.06;;;9.86;81.18
81897;BME280;71360;43.506;1.500;2023-11-21T01:21:00;99140.22;;;9.87;80.74
81897;BME280;71360;43.506;1.500;2023-11-21T01:23:26;99150.91;;;9.87;80.99
81897;BME280;71360;43.506;1.500;2023-11-21T01:25:52;99146.44;;;9.87;80.84
81897;BME280;71360;43.506;1.500;2023-11-21T01:28:18;99142.06;;;9.86;80.90
81897;BME280;71360;43.506;1.500;2023-11-21T01:30:45;99136.72;;;9.86;81.04
81897;BME280;71360;43.506;1.500;2023-11-21T01:33:11;99139.38;;;9.86;81.05
81897;BME280;71360;43.506;1.500;2023-11-21T01:35:36;99129.63;;;9.85;81.17
81897;BME280;71360;43.506;1.500;2023-11-21T01:38:02;99131.44;;;9.85;81.24
81897;BME280;71360;43.506;1.500;2023-11-21T01:40:29;99123.50;;;9.83;80.75
81897;BME280;71360;43.506;1.500;2023-11-21T01:42:55;99116.44;;;9.82;80.63
81897;BME280;71360;43.506;1.500;2023-11-21T01:45:21;99124.53;;;9.80;80.49
81897;BME280;71360;43.506;1.500;2023-11-21T01:47:46;99119.25;;;9.79;80.77
81897;BME280;71360;43.506;1.500;2023-11-21T01:50:15;99121.16;;;9.77;80.61
81897;BME280;71360;43.506;1.500;2023-11-21T01:52:44;99117.75;;;9.73;81.10
81897;BME280;71360;43.506;1.500;2023-11-21T01:55:10;99115.97;;;9.74;80.75
81897;BME280;71360;43.506;1.500;2023-11-21T01:57:36;99113.28;;;9.74;80.67
81897;BME280;71360;43.506;1.500;2023-11-21T02:00:03;99107.97;;;9.74;80.75
81897;BME280;71360;43.506;1.500;2023-11-21T02:02:42;99109.63;;;9.76;80.63
81897;BME280;71360;43.506;1.500;2023-11-21T02:05:10;99107.97;;;9.74;80.84
81897;BME280;71360;43.506;1.500;2023-11-21T02:07:35;99100.88;;;9.73;80.61
81897;BME280;71360;43.506;1.500;2023-11-21T02:10:03;99097.28;;;9.74;80.82
81897;BME280;71360;43.506;1.500;2023-11-21T02:12:29;99089.28;;;9.74;80.59
81897;BME280;71360;43.506;1.500;2023-11-21T02:14:55;99083.94;;;9.74;80.71
81897;BME280;71360;43.506;1.500;2023-11-21T02:17:21;99083.06;;;9.73;80.50
81897;BME280;71360;43.506;1.500;2023-11-21T02:19:49;99092.88;;;9.73;80.34
81897;BME280;71360;43.506;1.500;2023-11-21T02:22:17;99086.75;;;9.71;80.43
81897;BME280;71360;43.506;1.500;2023-11-21T02:24:45;99080.63;;;9.69;80.66
81897;BME280;71360;43.506;1.500;2023-11-21T02:27:12;99081.56;;;9.68;80.86
81897;BME280;71360;43.506;1.500;2023-11-21T02:29:38;99075.50;;;9.64;80.51
81897;BME280;71360;43.506;1.500;2023-11-21T02:32:03;99065.78;;;9.63;80.90
81897;BME280;71360;43.506;1.500;2023-11-21T02:34:29;99070.25;;;9.62;80.77
81897;BME280;71360;43.506;1.500;2023-11-21T02:36:54;99066.16;;;9.55;81.18
81897;BME280;71360;43.506;1.500;2023-11-21T02:39:20;99054.84;;;9.50;81.00
81897;BME280;71360;43.506;1.500;2023-11-21T02:41:47;99060.34;;;9.47;81.45
81897;BME280;71360;43.506;1.500;2023-11-21T02:44:13;99055.16;;;9.44;80.96
81897;BME280;71360;43.506;1.500;2023-11-21T02:46:38;99057.09;;;9.40;81.43
81897;BME280;71360;43.506;1.500;2023-11-21T02:49:04;99048.25;;;9.40;81.39
81897;BME280;71360;43.506;1.500;2023-11-21T02:51:31;99054.59;;;9.37;81.33
81897;BME280;71360;43.506;1.500;2023-11-21T02:53:57;99044.00;;;9.36;81.74
81897;BME280;71360;43.506;1.500;2023-11-21T02:56:28;99047.75;;;9.32;81.59
81897;BME280;71360;43.506;1.500;2023-11-21T02:58:57;99048.69;;;9.31;81.72
81897;BME280;71360;43.506;1.500;2023-11-21T03:01:22;99038.22;;;9.26;81.74
81897;BME280;71360;43.506;1.500;2023-11-21T03:03:51;99047.09;;;9.26;82.25
81897;BME280;71360;43.506;1.500;2023-11-21T03:06:18;99039.25;;;9.23;81.98
81897;BME280;71360;43.506;1.500;2023-11-21T03:08:44;99039.25;;;9.23;82.00
81897;BME280;71360;43.506;1.500;2023-11-21T03:11:09;99034.06;;;9.20;82.29
81897;BME280;71360;43.506;1.500;2023-11-21T03:13:35;99029.66;;;9.19;82.16
81897;BME280;71360;43.506;1.500;2023-11-21T03:16:00;99030.63;;;9.18;82.55
81897;BME280;71360;43.506;1.500;2023-11-21T03:18:26;99027.16;;;9.16;82.58
81897;BME280;71360;43.506;1.500;2023-11-21T03:20:53;99032.63;;;9.13;82.34
81897;BME280;71360;43.506;1.500;2023-11-21T03:23:19;99020.22;;;9.12;82.42
81897;BME280;71360;43.506;1.500;2023-11-21T03:25:44;99019.53;;;9.08;82.30
81897;BME280;71360;43.506;1.500;2023-11-21T03:28:10;99022.25;;;9.07;82.69
81897;BME280;71360;43.506;1.500;2023-11-21T03:30:35;99027.59;;;9.07;82.74
81897;BME280;71360;43.506;1.500;2023-11-21T03:33:01;99011.59;;;9.07;82.28
81897;BME280;71360;43.506;1.500;2023-11-21T03:35:26;99006.34;;;9.05;82.29
81897;BME280;71360;43.506;1.500;2023-11-21T03:37:53;99012.53;;;9.06;82.83
81897;BME280;71360;43.506;1.500;2023-11-21T03:40:19;99015.22;;;9.06;82.61
81897;BME280;71360;43.506;1.500;2023-11-21T03:42:46;99020.47;;;9.07;82.47
81897;BME280;71360;43.506;1.500;2023-11-21T03:45:12;99014.13;;;9.10;82.22
81897;BME280;71360;43.506;1.500;2023-11-21T03:47:41;99016.63;;;9.13;82.27
81897;BME280;71360;43.506;1.500;2023-11-21T03:50:07;99014.81;;;9.13;82.57
81897;BME280;71360;43.506;1.500;2023-11-21T03:52:33;99016.56;;;9.15;82.15
81897;BME280;71360;43.506;1.500;2023-11-21T03:55:00;99025.41;;;9.15;82.43
81897;BME280;71360;43.506;1.500;2023-11-21T03:57:26;99026.28;;;9.16;82.55
81897;BME280;71360;43.506;1.500;2023-11-21T03:59:53;99009.41;;;9.15;82.78
81897;BME280;71360;43.506;1.500;2023-11-21T04:02:18;99009.41;;;9.15;82.16
81897;BME280;71360;43.506;1.500;2023-11-21T04:04:44;99010.38;;;9.14;81.91
81897;BME280;71360;43.506;1.500;2023-11-21T04:07:09;99002.56;;;9.09;81.91
81897;BME280;71360;43.506;1.500;2023-11-21T04:09:35;99013.31;;;9.08;82.30
81897;BME280;71360;43.506;1.500;2023-11-21T04:12:01;98999.22;;;9.06;82.19
81897;BME280;71360;43.506;1.500;2023-11-21T04:14:27;98999.34;;;9.03;82.60
81897;BME280;71360;43.506;1.500;2023-11-21T04:16:53;98998.72;;;8.98;82.05
81897;BME280;71360;43.506;1.500;2023-11-21T04:19:19;98992.66;;;8.94;82.60
81897;BME280;71360;43.506;1.500;2023-11-21T04:21:44;99000.81;;;8.91;82.02
81897;BME280;71360;43.506;1.500;2023-11-21T04:24:11;99004.41;;;8.90;82.72
81897;BME280;71360;43.506;1.500;2023-11-21T04:26:36;98996.50;;;8.88;82.37
81897;BME280;71360;43.506;1.500;2023-11-21T04:29:02;98998.34;;;8.86;82.50
81897;BME280;71360;43.506;1.500;2023-11-21T04:31:27;98993.94;;;8.85;82.41
81897;BME280;71360;43.506;1.500;2023-11-21T04:33:53;98980.78;;;8.82;82.45
81897;BME280;71360;43.506;1.500;2023-11-21T04:36:18;98983.53;;;8.81;82.25
81897;BME280;71360;43.506;1.500;2023-11-21T04:38:45;98993.41;;;8.78;82.13
81897;BME280;71360;43.506;1.500;2023-11-21T04:41:10;98994.41;;;8.76;82.05
81897;BME280;71360;43.506;1.500;2023-11-21T04:43:37;98985.59;;;8.74;82.30
81897;BME280;71360;43.506;1.500;2023-11-21T04:46:02;98986.53;;;8.73;82.15
81897;BME280;71360;43.506;1.500;2023-11-21T04:48:28;98987.50;;;8.72;82.57
81897;BME280;71360;43.506;1.500;2023-11-21T04:50:53;98983.03;;;8.72;82.24
81897;BME280;71360;43.506;1.500;2023-11-21T04:53:19;98979.50;;;8.72;82.60
81897;BME280;71360;43.506;1.500;2023-11-21T04:55:45;98979.50;;;8.72;82.02
81897;BME280;71360;43.506;1.500;2023-11-21T04:58:11;98979.50;;;8.72;82.25
81897;BME280;71360;43.506;1.500;2023-11-21T05:00:37;98969.78;;;8.71;82.57
81897;BME280;71360;43.506;1.500;2023-11-21T05:03:03;98980.50;;;8.69;82.65
81897;BME280;71360;43.506;1.500;2023-11-21T05:05:32;98970.84;;;8.67;82.85
81897;BME280;71360;43.506;1.500;2023-11-21T05:07:59;98970.84;;;8.67;82.23
81897;BME280;71360;43.506;1.500;2023-11-21T05:10:25;98966.44;;;8.66;82.29
81897;BME280;71360;43.506;1.500;2023-11-21T05:12:50;98969.97;;;8.66;82.38
81897;BME280;71360;43.506;1.500;2023-11-21T05:15:16;98965.53;;;8.67;82.85
81897;BME280;71360;43.506;1.500;2023-11-21T05:17:46;98957.63;;;8.65;82.98
81897;BME280;71360;43.506;1.500;2023-11-21T05:20:15;98958.47;;;8.66;82.62
81897;BME280;71360;43.506;1.500;2023-11-21T05:22:50;98969.13;;;8.66;83.18
81897;BME280;71360;43.506;1.500;2023-11-21T05:25:15;98969.13;;;8.66;82.85
81897;BME280;71360;43.506;1.500;2023-11-21T05:27:44;98962.88;;;8.67;82.77
81897;BME280;71360;43.506;1.500;2023-11-21T05:30:10;98966.31;;;8.69;82.64
81897;BME280;71360;43.506;1.500;2023-11-21T05:32:38;98957.38;;;8.70;82.54
81897;BME280;71360;43.506;1.500;2023-11-21T05:35:04;98968.84;;;8.72;82.84
81897;BME280;71360;43.506;1.500;2023-11-21T05:37:35;98974.94;;;8.74;82.74
81897;BME280;71360;43.506;1.500;2023-11-21T05:40:01;98969.47;;;8.77;82.90
81897;BME280;71360;43.506;1.500;2023-11-21T05:42:31;98980.94;;;8.79;82.81
81897;BME280;71360;43.506;1.500;2023-11-21T05:44:57;98967.44;;;8.82;82.66
81897;BME280;71360;43.506;1.500;2023-11-21T05:47:24;98961.03;;;8.86;82.52
81897;BME280;71360;43.506;1.500;2023-11-21T05:49:51;98953.84;;;8.88;82.31
81897;BME280;71360;43.506;1.500;2023-11-21T05:52:17;98948.53;;;8.88;82.35
81897;BME280;71360;43.506;1.500;2023-11-21T05:54:43;98959.94;;;8.90;82.83
81897;BME280;71360;43.506;1.500;2023-11-21T05:57:08;98950.94;;;8.93;82.41
81897;BME280;71360;43.506;1.500;2023-11-21T05:59:34;98956.19;;;8.94;82.80
81897;BME280;71360;43.506;1.500;2023-11-21T06:01:59;98965.00;;;8.97;82.58
81897;BME280;71360;43.506;1.500;2023-11-21T06:04:25;98957.00;;;8.97;82.58
81897;BME280;71360;43.506;1.500;2023-11-21T06:06:51;98959.59;;;8.98;82.51
81897;BME280;71360;43.506;1.500;2023-11-21T06:09:18;98954.97;;;9.02;82.51
81897;BME280;71360;43.506;1.500;2023-11-21T06:11:44;98956.56;;;9.06;82.25
81897;BME280;71360;43.506;1.500;2023-11-21T06:14:09;98959.22;;;9.06;82.44
81897;BME280;71360;43.506;1.500;2023-11-21T06:16:36;98958.25;;;9.07;82.65
81897;BME280;71360;43.506;1.500;2023-11-21T06:19:01;98949.34;;;9.08;82.41
81897;BME280;71360;43.506;1.500;2023-11-21T06:21:27;98960.81;;;9.10;82.56
81897;BME280;71360;43.506;1.500;2023-11-21T06:23:52;98954.66;;;9.08;82.46
81897;BME280;71360;43.506;1.500;2023-11-21T06:26:18;98948.47;;;9.07;82.59
81897;BME280;71360;43.506;1.500;2023-11-21T06:28:44;98952.00;;;9.08;82.95
81897;BME280;71360;43.506;1.500;2023-11-21T06:31:09;98951.06;;;9.09;82.82
81897;BME280;71360;43.506;1.500;2023-11-21T06:33:39;98963.47;;;9.10;82.64
81897;BME280;71360;43.506;1.500;2023-11-21T06:36:04;98962.50;;;9.11;82.63
81897;BME280;71360;43.506;1.500;2023-11-21T06:38:31;98962.47;;;9.12;83.19
81897;BME280;71360;43.506;1.500;2023-11-21T06:40:57;98956.16;;;9.13;82.80
81897;BME280;71360;43.506;1.500;2023-11-21T06:43:32;98959.56;;;9.17;82.82
81897;BME280;71360;43.506;1.500;2023-11-21T06:45:58;98960.50;;;9.16;82.76
81897;BME280;71360;43.506;1.500;2023-11-21T06:48:23;98960.31;;;9.19;83.12
81897;BME280;71360;43.506;1.500;2023-11-21T06:50:49;98961.97;;;9.22;83.11
81897;BME280;71360;43.506;1.500;2023-11-21T06:53:14;98964.59;;;9.23;82.99
81897;BME280;71360;43.506;1.500;2023-11-21T06:55:40;98963.63;;;9.24;82.92
81897;BME280;71360;43.506;1.500;2023-11-21T06:58:05;98968.88;;;9.26;82.62
81897;BME280;71360;43.506;1.500;2023-11-21T07:00:31;98979.44;;;9.29;83.33
81897;BME280;71360;43.506;1.500;2023-11-21T07:02:56;98970.47;;;9.30;83.18
81897;BME280;71360;43.506;1.500;2023-11-21T07:05:22;98971.34;;;9.31;83.34
81897;BME280;71360;43.506;1.500;2023-11-21T07:07:48;98981.94;;;9.32;82.97
81897;BME280;71360;43.506;1.500;2023-11-21T07:10:14;98965.00;;;9.33;83.07
81897;BME280;71360;43.506;1.500;2023-11-21T07:12:40;98971.19;;;9.34;83.13
81897;BME280;71360;43.506;1.500;2023-11-21T07:15:06;98969.31;;;9.36;83.13
81897;BME280;71360;43.506;1.500;2023-11-21T07:17:35;98969.16;;;9.39;83.38
81897;BME280;71360;43.506;1.500;2023-11-21T07:20:01;98963.75;;;9.40;83.79
81897;BME280;71360;43.506;1.500;2023-11-21T07:22:27;98977.00;;;9.42;83.49
81897;BME280;71360;43.506;1.500;2023-11-21T07:24:52;98964.53;;;9.42;83.62
81897;BME280;71360;43.506;1.500;2023-11-21T07:27:18;98977.81;;;9.44;83.72
81897;BME280;71360;43.506;1.500;2023-11-21T07:29:44;98980.47;;;9.44;83.46
81897;BME280;71360;43.506;1.500;2023-11-21T07:32:09;98976.91;;;9.43;83.62
81897;BME280;71360;43.506;1.500;2023-11-21T07:34:35;98995.50;;;9.45;83.59
81897;BME280;71360;43.506;1.500;2023-11-21T07:37:01;98984.84;;;9.45;84.02
81897;BME280;71360;43.506;1.500;2023-11-21T07:39:27;98986.75;;;9.43;83.74
81897;BME280;71360;43.506;1.500;2023-11-21T07:41:53;98992.00;;;9.44;84.21
81897;BME280;71360;43.506;1.500;2023-11-21T07:44:19;98991.13;;;9.44;83.97
81897;BME280;71360;43.506;1.500;2023-11-21T07:46:45;99003.50;;;9.45;84.48
81897;BME280;71360;43.506;1.500;2023-11-21T07:49:11;98997.25;;;9.46;84.15
81897;BME280;71360;43.506;1.500;2023-11-21T07:51:36;99006.06;;;9.48;84.01
81897;BME280;71360;43.506;1.500;2023-11-21T07:54:02;99004.16;;;9.50;84.40
81897;BME280;71360;43.506;1.500;2023-11-21T07:56:27;99012.97;;;9.52;84.32
81897;BME280;71360;43.506;1.500;2023-11-21T07:58:53;99011.06;;;9.54;83.88
81897;BME280;71360;43.506;1.500;2023-11-21T08:01:19;99014.53;;;9.56;84.26
81897;BME280;71360;43.506;1.500;2023-11-21T08:03:56;99010.94;;;9.57;84.67
81897;BME280;71360;43.506;1.500;2023-11-21T08:06:26;99016.28;;;9.57;84.49
81897;BME280;71360;43.506;1.500;2023-11-21T08:08:52;99023.31;;;9.58;84.75
81897;BME280;71360;43.506;1.500;2023-11-21T08:11:17;99022.28;;;9.61;84.26
81897;BME280;71360;43.506;1.500;2023-11-21T08:13:44;99020.50;;;9.61;84.57
81897;BME280;71360;43.506;1.500;2023-11-21T08:16:11;99022.09;;;9.66;84.55
81897;BME280;71360;43.506;1.500;2023-11-21T08:18:37;99028.34;;;9.65;84.31
81897;BME280;71360;43.506;1.500;2023-11-21T08:21:03;99032.81;;;9.64;84.80
81897;BME280;71360;43.506;1.500;2023-11-21T08:23:29;99031.03;;;9.65;84.61
81897;BME280;71360;43.506;1.500;2023-11-21T08:25:55;99031.66;;;9.70;84.71
81897;BME280;71360;43.506;1.500;2023-11-21T08:28:20;99033.38;;;9.71;84.93
81897;BME280;71360;43.506;1.500;2023-11-21T08:30:53;99044.84;;;9.73;84.99
81897;BME280;71360;43.506;1.500;2023-11-21T08:33:22;99044.69;;;9.76;84.95
81897;BME280;71360;43.506;1.500;2023-11-21T08:35:48;99044.50;;;9.79;84.64
81897;BME280;71360;43.506;1.500;2023-11-21T08:38:14;99026.72;;;9.79;84.82
81897;BME280;71360;43.506;1.500;2023-11-21T08:40:39;99031.03;;;9.82;84.51
81897;BME280;71360;43.506;1.500;2023-11-21T08:43:05;99039.03;;;9.82;84.58
81897;BME280;71360;43.506;1.500;2023-11-21T08:45:32;99023.81;;;9.84;84.39
81897;BME280;71360;43.506;1.500;2023-11-21T08:51:06;99029.84;;;9.88;84.87
81897;BME280;71360;43.506;1.500;2023-11-21T08:53:32;99032.28;;;9.92;85.03
81897;BME280;71360;43.506;1.500;2023-11-21T08:55:58;99023.16;;;9.96;85.03
81897;BME280;71360;43.506;1.500;2023-11-21T08:58:24;99031.03;;;10.00;84.85
81897;BME280;71360;43.506;1.500;2023-11-21T09:00:49;99031.72;;;10.03;84.90
81897;BME280;71360;43.506;1.500;2023-11-21T09:03:14;99030.63;;;10.07;85.32
81897;BME280;71360;43.506;1.500;2023-11-21T09:05:40;99030.72;;;10.06;85.02
81897;BME280;71360;43.506;1.500;2023-11-21T09:08:06;99027.00;;;10.08;85.27
81897;BME280;71360;43.506;1.500;2023-11-21T09:10:33;99031.34;;;10.11;85.47
81897;BME280;71360;43.506;1.500;2023-11-21T09:13:02;99031.16;;;10.14;85.32
81897;BME280;71360;43.506;1.500;2023-11-21T09:15:27;99040.66;;;10.20;85.12
81897;BME280;71360;43.506;1.500;2023-11-21T09:17:56;99037.91;;;10.21;85.24
81897;BME280;71360;43.506;1.500;2023-11-21T09:20:21;99034.31;;;10.22;85.20
81897;BME280;71360;43.506;1.500;2023-11-21T09:22:48;99043.25;;;10.21;85.09
81897;BME280;71360;43.506;1.500;2023-11-21T09:25:14;99038.78;;;10.22;85.18
81897;BME280;71360;43.506;1.500;2023-11-21T09:27:40;99045.06;;;10.21;85.04
81897;BME280;71360;43.506;1.500;2023-11-21T09:30:06;99038.63;;;10.25;84.84
81897;BME280;71360;43.506;1.500;2023-11-21T09:32:38;99043.13;;;10.24;85.03
81897;BME280;71360;43.506;1.500;2023-11-21T09:35:04;99041.28;;;10.25;85.14
81897;BME280;71360;43.506;1.500;2023-11-21T09:37:39;99037.78;;;10.24;84.97
81897;BME280;71360;43.506;1.500;2023-11-21T09:40:06;99042.94;;;10.27;85.16
81897;BME280;71360;43.506;1.500;2023-11-21T09:43:15;99057.16;;;10.28;85.11
81897;BME280;71360;43.506;1.500;2023-11-21T09:45:48;99058.81;;;10.30;85.02
81897;BME280;71360;43.506;1.500;2023-11-21T09:48:20;99048.13;;;10.30;85.03
81897;BME280;71360;43.506;1.500;2023-11-21T09:50:47;99056.94;;;10.33;84.87
81897;BME280;71360;43.506;1.500;2023-11-21T09:53:22;99048.84;;;10.34;85.10
81897;BME280;71360;43.506;1.500;2023-11-21T09:55:52;99051.44;;;10.36;84.74
81897;BME280;71360;43.506;1.500;2023-11-21T09:58:22;99059.47;;;10.36;85.01
81897;BME280;71360;43.506;1.500;2023-11-21T10:00:55;99057.66;;;10.36;84.57
81897;BME280;71360;43.506;1.500;2023-11-21T10:03:22;99063.00;;;10.36;84.67
81897;BME280;71360;43.506;1.500;2023-11-21T10:05:50;99057.50;;;10.39;84.61
81897;BME280;71360;43.506;1.500;2023-11-21T10:08:16;99061.03;;;10.40;84.83
81897;BME280;71360;43.506;1.500;2023-11-21T10:10:46;99061.75;;;10.43;84.71
81897;BME280;71360;43.506;1.500;2023-11-21T10:13:14;99060.72;;;10.46;85.34
81897;BME280;71360;43.506;1.500;2023-11-21T10:15:43;99063.38;;;10.46;84.84
81897;BME280;71360;43.506;1.500;2023-11-21T10:18:15;99063.22;;;10.49;85.15
81897;BME280;71360;43.506;1.500;2023-11-21T10:20:40;99066.66;;;10.51;84.87
81897;BME280;71360;43.506;1.500;2023-11-21T10:23:06;99068.41;;;10.52;85.45
81897;BME280;71360;43.506;1.500;2023-11-21T10:25:32;99069.19;;;10.54;85.28
81897;BME280;71360;43.506;1.500;2023-11-21T10:27:59;99072.72;;;10.55;85.42
81897;BME280;71360;43.506;1.500;2023-11-21T10:30:34;99069.03;;;10.57;84.94
81897;BME280;71360;43.506;1.500;2023-11-21T10:33:02;99070.75;;;10.58;85.19
81897;BME280;71360;43.506;1.500;2023-11-21T10:35:48;99072.13;;;10.66;84.83
81897;BME280;71360;43.506;1.500;2023-11-21T10:38:18;99056.91;;;10.68;84.88
81897;BME280;71360;43.506;1.500;2023-11-21T10:40:46;99055.00;;;10.70;85.00
81897;BME280;71360;43.506;1.500;2023-11-21T10:43:13;99053.97;;;10.72;84.91
81897;BME280;71360;43.506;1.500;2023-11-21T10:45:41;99048.44;;;10.75;84.99
81897;BME280;71360;43.506;1.500;2023-11-21T10:48:08;99055.53;;;10.76;85.21
81897;BME280;71360;43.506;1.500;2023-11-21T10:50:37;99052.00;;;10.76;85.31
81897;BME280;71360;43.506;1.500;2023-11-21T10:53:05;99051.91;;;10.77;85.14
81897;BME280;71360;43.506;1.500;2023-11-21T10:55:32;99055.34;;;10.79;85.49
81897;BME280;71360;43.506;1.500;2023-11-21T10:58:02;99050.81;;;10.81;84.98
81897;BME280;71360;43.506;1.500;2023-11-21T11:00:29;99048.88;;;10.84;84.79
81897;BME280;71360;43.506;1.500;2023-11-21T11:02:55;99043.44;;;10.85;84.87
81897;BME280;71360;43.506;1.500;2023-11-21T11:05:22;99048.81;;;10.85;84.72
81897;BME280;71360;43.506;1.500;2023-11-21T11:08:13;99040.78;;;10.85;84.86
81897;BME280;71360;43.506;1.500;2023-11-21T11:10:38;99046.13;;;10.85;84.71
81897;BME280;71360;43.506;1.500;2023-11-21T11:13:04;99045.19;;;10.86;84.80
81897;BME280;71360;43.506;1.500;2023-11-21T11:15:29;99039.75;;;10.88;84.63
81897;BME280;71360;43.506;1.500;2023-11-21T11:17:55;99042.38;;;10.89;84.63
81897;BME280;71360;43.506;1.500;2023-11-21T11:20:24;99046.75;;;10.90;84.33
81897;BME280;71360;43.506;1.500;2023-11-21T11:25:28;99047.53;;;10.92;84.20
81897;BME280;71360;43.506;1.500;2023-11-21T11:28:11;99042.28;;;10.91;84.34
81897;BME280;71360;43.506;1.500;2023-11-21T11:33:47;99030.78;;;10.89;84.55
81897;BME280;71360;43.506;1.500;2023-11-21T11:36:31;99041.41;;;10.90;84.64
81897;BME280;71360;43.506;1.500;2023-11-21T11:38:59;99042.38;;;10.89;84.09
81897;BME280;71360;43.506;1.500;2023-11-21T11:41:30;99033.28;;;10.92;84.29
81897;BME280;71360;43.506;1.500;2023-11-21T11:43:58;99044.25;;;10.87;84.48
81897;BME280;71360;43.506;1.500;2023-11-21T11:46:41;99045.19;;;10.86;84.47
81897;BME280;71360;43.506;1.500;2023-11-21T11:49:07;99034.66;;;10.83;84.36
81897;BME280;71360;43.506;1.500;2023-11-21T11:51:33;99032.09;;;10.81;84.30
81897;BME280;71360;43.506;1.500;2023-11-21T11:54:01;99032.94;;;10.82;84.32
81897;BME280;71360;43.506;1.500;2023-11-21T11:56:31;99020.38;;;10.84;84.70
81897;BME280;71360;43.506;1.500;2023-11-21T11:59:01;99027.25;;;10.88;84.93
81897;BME280;71360;43.506;1.500;2023-11-21T12:01:33;99025.25;;;10.92;84.72
81897;BME280;71360;43.506;1.500;2023-11-21T12:06:59;99022.88;;;11.03;84.46
81897;BME280;71360;43.506;1.500;2023-11-21T12:09:28;99011.91;;;11.08;84.23
81897;BME280;71360;43.506;1.500;2023-11-21T12:11:55;99014.25;;;11.14;84.37
81897;BME280;71360;43.506;1.500;2023-11-21T12:14:23;99015.91;;;11.17;84.33
81897;BME280;71360;43.506;1.500;2023-11-21T12:16:49;99016.56;;;11.20;84.35
81897;BME280;71360;43.506;1.500;2023-11-21T12:19:15;99015.34;;;11.26;83.81
81897;BME280;71360;43.506;1.500;2023-11-21T12:21:43;99012.53;;;11.29;83.80
81897;BME280;71360;43.506;1.500;2023-11-21T12:24:09;99006.13;;;11.31;83.45
81897;BME280;71360;43.506;1.500;2023-11-21T12:26:35;99015.53;;;11.39;83.61
81897;BME280;71360;43.506;1.500;2023-11-21T12:29:02;99017.06;;;11.43;83.66
81897;BME280;71360;43.506;1.500;2023-11-21T12:31:30;99014.22;;;11.46;83.24
81897;BME280;71360;43.506;1.500;2023-11-21T12:33:56;99016.69;;;11.49;83.26
81897;BME280;71360;43.506;1.500;2023-11-21T12:36:23;99021.91;;;11.52;83.68
81897;BME280;71360;43.506;1.500;2023-11-21T12:38:48;99021.00;;;11.52;82.97
81897;BME280;71360;43.506;1.500;2023-11-21T12:41:15;99006.69;;;11.53;83.17
81897;BME280;71360;43.506;1.500;2023-11-21T12:43:42;99009.47;;;11.51;82.66
81897;BME280;71360;43.506;1.500;2023-11-21T12:46:10;99025.69;;;11.48;82.56
81897;BME280;71360;43.506;1.500;2023-11-21T12:48:39;99015.34;;;11.42;82.34
81897;BME280;71360;43.506;1.500;2023-11-21T12:51:07;99025.38;;;11.38;82.64
81897;BME280;71360;43.506;1.500;2023-11-21T12:53:33;99027.34;;;11.35;82.25
81897;BME280;71360;43.506;1.500;2023-11-21T12:56:07;99021.22;;;11.32;82.63
81897;BME280;71360;43.506;1.500;2023-11-21T12:58:38;99022.19;;;11.31;82.88
81897;BME280;71360;43.506;1.500;2023-11-21T13:01:07;99028.47;;;11.30;82.79
81897;BME280;71360;43.506;1.500;2023-11-21T13:03:37;99021.41;;;11.29;82.82
81897;BME280;71360;43.506;1.500;2023-11-21T13:06:04;99033.03;;;11.28;82.76
81897;BME280;71360;43.506;1.500;2023-11-21T13:08:30;99029.59;;;11.26;82.81
81897;BME280;71360;43.506;1.500;2023-11-21T13:10:58;99028.66;;;11.27;82.55
81897;BME280;71360;43.506;1.500;2023-11-21T13:13:25;99033.13;;;11.27;82.94
81897;BME280;71360;43.506;1.500;2023-11-21T13:15:59;99035.81;;;11.27;83.01
81897;BME280;71360;43.506;1.500;2023-11-21T13:18:31;99039.41;;;11.26;82.70